createdAt,value
2019-02-05T00:00:58.193Z,102224.78
2019-02-05T00:03:27.176Z,102223.97
2019-02-05T00:05:55.927Z,102232.04
2019-02-05T00:08:24.548Z,102238.55
2019-02-05T00:10:53.805Z,102243.95
2019-02-05T00:13:22.796Z,102246.10
2019-02-05T00:15:51.668Z,102248.52
2019-02-05T00:18:20.400Z,102248.52
2019-02-05T00:20:49.099Z,102238.77
2019-02-05T00:23:18.754Z,102243.42
2019-02-05T00:25:47.113Z,102250.17
2019-02-05T00:28:15.813Z,102243.69
2019-02-05T00:30:44.476Z,102254.75
2019-02-05T00:33:13.087Z,102250.98
2019-02-05T00:35:42.775Z,102257.45
2019-02-05T00:38:12.139Z,102251.01
2019-02-05T00:40:41.692Z,102248.28
2019-02-05T00:43:10.962Z,102264.20
2019-02-05T00:45:41.552Z,102261.50
2019-02-05T00:48:10.044Z,102265.30
2019-02-05T00:50:38.602Z,102261.52
2019-02-05T00:53:07.242Z,102269.91
2019-02-05T00:55:35.819Z,102281.28
2019-02-05T00:58:04.739Z,102282.08
2019-02-05T01:00:34.186Z,102280.47
2019-02-05T01:03:04.517Z,102279.42
2019-02-05T01:05:33.388Z,102282.11
2019-02-05T01:08:02.030Z,102283.73
2019-02-05T01:10:31.087Z,102284.02
2019-02-05T01:12:59.607Z,102281.31
2019-02-05T01:15:28.300Z,102286.42
2019-02-05T01:17:57.992Z,102292.09
2019-02-05T01:20:26.574Z,102303.16
2019-02-05T01:22:55.079Z,102289.92
2019-02-05T01:25:23.842Z,102288.84
2019-02-05T01:27:52.859Z,102281.56
2019-02-05T01:30:23.984Z,102278.06
2019-02-05T01:32:52.652Z,102268.91
2019-02-05T01:35:21.501Z,102272.95
2019-02-05T01:37:50.865Z,102262.43
2019-02-05T01:40:21.983Z,102268.09
2019-02-05T01:42:50.940Z,102263.77
2019-02-05T01:45:21.633Z,102271.06
2019-02-05T01:47:50.653Z,102260.01
2019-02-05T01:50:24.664Z,102259.18
2019-02-05T01:52:53.388Z,102263.48
2019-02-05T01:55:22.341Z,102261.09
2019-02-05T01:57:51.283Z,102265.92
2019-02-05T02:00:26.336Z,102267.27
2019-02-05T02:02:54.920Z,102267.28
2019-02-05T02:05:24.029Z,102268.38
2019-02-05T02:07:53.030Z,102268.62
2019-02-05T02:10:24.988Z,102275.09
2019-02-05T02:12:54.305Z,102271.61
2019-02-05T02:15:23.125Z,102276.19
2019-02-05T02:17:51.812Z,102285.33
2019-02-05T02:20:20.915Z,102282.38
2019-02-05T02:22:49.626Z,102272.12
2019-02-05T02:25:18.699Z,102269.16
2019-02-05T02:27:49.346Z,102279.14
2019-02-05T02:30:27.080Z,102276.98
2019-02-05T02:32:55.982Z,102274.03
2019-02-05T02:35:24.435Z,102277.25
2019-02-05T02:37:53.479Z,102279.67
2019-02-05T02:40:21.940Z,102278.34
2019-02-05T02:42:51.026Z,102277.00
2019-02-05T02:45:19.713Z,102279.41
2019-02-05T02:47:48.416Z,102286.98
2019-02-05T02:50:17.036Z,102291.56
2019-02-05T02:52:45.950Z,102292.09
2019-02-05T02:55:14.909Z,102299.90
2019-02-05T02:57:44.148Z,102297.50
2019-02-05T03:00:16.634Z,102292.34
2019-02-05T03:02:46.230Z,102292.10
2019-02-05T03:05:17.616Z,102293.97
2019-02-05T03:07:48.568Z,102293.44
2019-02-05T03:10:23.368Z,102303.69
2019-02-05T03:12:52.683Z,102309.08
2019-02-05T03:15:21.809Z,102303.95
2019-02-05T03:17:50.564Z,102306.12
2019-02-05T03:20:18.978Z,102312.59
2019-02-05T03:22:48.243Z,102313.94
2019-02-05T03:25:20.219Z,102313.40
2019-02-05T03:27:48.934Z,102320.94
2019-02-05T03:30:19.758Z,102324.19
2019-02-05T03:32:49.553Z,102324.45
2019-02-05T03:35:19.567Z,102320.95
2019-02-05T03:37:48.742Z,102316.34
2019-02-05T03:41:05.921Z,102311.78
2019-02-05T03:43:36.683Z,102311.25
2019-02-05T03:46:08.383Z,102317.16
2019-02-05T03:48:37.657Z,102320.41
2019-02-05T03:51:49.486Z,102315.29
2019-02-05T03:55:37.151Z,102315.82
2019-02-05T03:59:00.448Z,102323.91
2019-02-05T04:02:31.834Z,102313.67
2019-02-05T04:05:57.249Z,102312.31
2019-02-05T04:09:35.807Z,102298.30
2019-02-05T04:12:55.941Z,102305.30
2019-02-05T04:16:11.294Z,102304.75
2019-02-05T04:19:45.043Z,102308.00
2019-02-05T04:22:44.098Z,102310.16
2019-02-05T04:26:09.084Z,102308.55
2019-02-05T04:29:07.547Z,102298.01
2019-02-05T04:32:19.876Z,102301.00
2019-02-05T04:35:48.811Z,102308.52
2019-02-05T04:39:39.672Z,102302.33
2019-02-05T04:43:15.694Z,102316.09
2019-02-05T04:46:26.188Z,102319.07
2019-02-05T04:50:13.060Z,102323.91
2019-02-05T04:53:21.447Z,102319.31
2019-02-05T04:56:44.047Z,102321.49
2019-02-05T05:00:27.390Z,102329.56
2019-02-05T05:03:24.493Z,102334.70
2019-02-05T05:07:08.444Z,102339.83
2019-02-05T05:09:59.441Z,102347.10
2019-02-05T05:12:30.111Z,102343.60
2019-02-05T05:14:59.566Z,102340.38
2019-02-05T05:17:28.422Z,102334.70
2019-02-05T05:19:57.109Z,102336.05
2019-02-05T05:22:26.218Z,102334.42
2019-02-05T05:24:54.975Z,102325.24
2019-02-05T05:27:25.133Z,102329.31
2019-02-05T05:29:54.009Z,102329.56
2019-02-05T05:32:22.731Z,102328.50
2019-02-05T05:34:51.168Z,102327.66
2019-02-05T05:37:18.338Z,102336.03
2019-02-05T05:39:47.089Z,102340.91
2019-02-05T05:42:15.706Z,102348.45
2019-02-05T05:44:44.797Z,102356.28
2019-02-05T05:47:13.395Z,102353.58
2019-02-05T05:49:41.938Z,102351.71
2019-02-05T05:52:10.693Z,102352.78
2019-02-05T05:54:39.292Z,102358.17
2019-02-05T05:57:07.979Z,102359.78
2019-02-05T05:59:36.591Z,102362.50
2019-02-05T06:02:05.594Z,102360.88
2019-02-05T06:04:34.266Z,102358.70
2019-02-05T06:07:02.984Z,102366.02
2019-02-05T06:09:31.507Z,102364.64
2019-02-05T06:12:00.183Z,102370.30
2019-02-05T06:14:28.931Z,102371.67
2019-02-05T06:16:57.682Z,102370.06
2019-02-05T06:19:26.815Z,102375.45
2019-02-05T06:21:55.364Z,102375.19
2019-02-05T06:24:24.074Z,102372.20
2019-02-05T06:26:52.651Z,102384.89
2019-02-05T06:29:21.438Z,102381.64
2019-02-05T06:31:50.101Z,102388.39
2019-02-05T06:34:18.700Z,102390.02
2019-02-05T06:36:47.239Z,102392.72
2019-02-05T06:39:15.903Z,102387.33
2019-02-05T06:41:44.641Z,102395.40
2019-02-05T06:44:13.713Z,102393.80
2019-02-05T06:46:42.273Z,102393.79
2019-02-05T06:49:10.892Z,102398.11
2019-02-05T06:51:39.855Z,102399.74
2019-02-05T06:54:08.608Z,102406.20
2019-02-05T06:56:37.185Z,102408.62
2019-02-05T06:59:06.017Z,102412.94
2019-02-05T07:01:34.723Z,102422.14
2019-02-05T07:04:04.508Z,102422.67
2019-02-05T07:06:33.274Z,102424.30
2019-02-05T07:09:02.321Z,102432.66
2019-02-05T07:11:30.814Z,102429.95
2019-02-05T07:13:59.506Z,102443.19
2019-02-05T07:16:28.003Z,102450.47
2019-02-05T07:18:56.835Z,102443.18
2019-02-05T07:21:25.532Z,102446.97
2019-02-05T07:23:54.161Z,102455.61
2019-02-05T07:26:23.298Z,102456.66
2019-02-05T07:28:58.449Z,102463.42
2019-02-05T07:31:22.582Z,102469.38
2019-02-05T07:33:51.212Z,102468.57
2019-02-05T07:36:19.898Z,102474.77
2019-02-05T07:38:48.402Z,102470.45
2019-02-05T07:41:17.186Z,102480.44
2019-02-05T07:43:46.257Z,102481.78
2019-02-05T07:46:15.017Z,102479.63
2019-02-05T07:48:43.570Z,102480.70
2019-02-05T07:51:12.139Z,102484.20
2019-02-05T07:53:40.894Z,102484.48
2019-02-05T07:56:12.820Z,102490.41
2019-02-05T07:58:40.464Z,102489.88
2019-02-05T08:01:09.037Z,102491.50
2019-02-05T08:03:37.571Z,102496.92
2019-02-05T08:06:06.102Z,102501.78
2019-02-05T08:08:35.051Z,102501.24
2019-02-05T08:11:04.665Z,102511.22
2019-02-05T08:13:35.031Z,102503.39
2019-02-05T08:16:04.143Z,102506.11
2019-02-05T08:18:32.786Z,102504.74
2019-02-05T08:21:02.247Z,102506.89
2019-02-05T08:23:30.812Z,102508.25
2019-02-05T08:25:59.393Z,102507.70
2019-02-05T08:28:28.132Z,102514.98
2019-02-05T08:30:56.622Z,102517.72
2019-02-05T08:33:25.719Z,102516.88
2019-02-05T08:35:54.214Z,102516.62
2019-02-05T08:38:24.206Z,102524.72
2019-02-05T08:40:52.676Z,102530.41
2019-02-05T08:43:21.292Z,102527.42
2019-02-05T08:45:56.658Z,102523.63
2019-02-05T08:48:20.337Z,102536.62
2019-02-05T08:50:48.844Z,102531.22
2019-02-05T08:53:17.474Z,102533.92
2019-02-05T08:55:46.239Z,102537.41
2019-02-05T08:58:17.081Z,102544.44
2019-02-05T09:00:46.039Z,102545.81
2019-02-05T09:03:14.561Z,102565.23
2019-02-05T09:05:43.094Z,102564.97
2019-02-05T09:08:11.583Z,102573.08
2019-02-05T09:10:40.623Z,102560.38
2019-02-05T09:13:09.710Z,102561.73
2019-02-05T09:15:38.536Z,102559.59
2019-02-05T09:18:08.281Z,102565.53
2019-02-05T09:20:37.035Z,102560.38
2019-02-05T09:23:05.994Z,102564.42
2019-02-05T09:25:34.591Z,102565.25
2019-02-05T09:28:03.467Z,102574.69
2019-02-05T09:30:33.642Z,102572.52
2019-02-05T09:33:06.955Z,102576.06
2019-02-05T09:35:35.738Z,102581.73
2019-02-05T09:38:05.153Z,102579.02
2019-02-05T09:40:34.101Z,102589.28
2019-02-05T09:43:03.231Z,102591.18
2019-02-05T09:45:33.140Z,102584.67
2019-02-05T09:48:02.264Z,102592.80
2019-02-05T09:50:43.495Z,102592.27
2019-02-05T09:53:01.822Z,102589.55
2019-02-05T09:55:30.300Z,102591.97
2019-02-05T09:57:58.990Z,102590.09
2019-02-05T10:00:37.547Z,102589.27
2019-02-05T10:03:07.956Z,102593.58
2019-02-05T10:05:37.025Z,102592.78
2019-02-05T10:08:06.577Z,102606.03
2019-02-05T10:10:35.303Z,102600.88
2019-02-05T10:13:04.694Z,102603.59
2019-02-05T10:15:35.490Z,102604.69
2019-02-05T10:18:06.802Z,102609.55
2019-02-05T10:20:35.846Z,102608.45
2019-02-05T10:23:07.123Z,102613.86
2019-02-05T10:25:36.358Z,102614.67
2019-02-05T10:28:05.273Z,102619.81
2019-02-05T10:30:43.341Z,102617.93
2019-02-05T10:33:12.869Z,102622.78
2019-02-05T10:35:42.039Z,102626.86
2019-02-05T10:38:10.822Z,102623.87
2019-02-05T10:40:39.361Z,102630.09
2019-02-05T10:43:08.374Z,102626.59
2019-02-05T10:45:37.438Z,102623.07
2019-02-05T10:48:08.974Z,102617.39
2019-02-05T10:50:37.937Z,102624.13
2019-02-05T10:53:07.819Z,102613.34
2019-02-05T10:55:36.484Z,102615.49
2019-02-05T10:58:06.805Z,102619.27
2019-02-05T11:00:35.438Z,102613.06
2019-02-05T11:03:06.537Z,102613.35
2019-02-05T11:05:35.853Z,102612.25
2019-02-05T11:08:05.785Z,102617.11
2019-02-05T11:10:34.779Z,102619.54
2019-02-05T11:13:05.065Z,102615.50
2019-02-05T11:15:34.273Z,102609.80
2019-02-05T11:18:07.102Z,102611.17
2019-02-05T11:20:35.880Z,102608.45
2019-02-05T11:23:05.315Z,102602.46
2019-02-05T11:25:34.539Z,102596.41
2019-02-05T11:28:03.165Z,102602.84
2019-02-05T11:30:42.357Z,102596.67
2019-02-05T11:33:11.511Z,102597.72
2019-02-05T11:35:40.106Z,102595.70
2019-02-05T11:38:10.702Z,102598.19
2019-02-05T11:40:40.394Z,102593.84
2019-02-05T11:43:09.065Z,102595.98
2019-02-05T11:45:37.817Z,102594.06
2019-02-05T11:48:12.681Z,102596.52
2019-02-05T11:50:41.752Z,102603.07
2019-02-05T11:53:10.336Z,102595.23
2019-02-05T11:55:39.539Z,102600.08
2019-02-05T11:58:08.149Z,102599.02
2019-02-05T12:00:59.275Z,102602.22
2019-02-05T12:03:28.171Z,102594.41
2019-02-05T12:05:56.663Z,102602.25
2019-02-05T12:08:25.660Z,102601.75
2019-02-05T12:10:54.246Z,102607.13
2019-02-05T12:13:22.725Z,102605.81
2019-02-05T12:15:51.278Z,102603.67
2019-02-05T12:18:20.614Z,102606.66
2019-02-05T12:20:49.760Z,102608.77
2019-02-05T12:23:18.550Z,102611.53
2019-02-05T12:25:47.242Z,102605.78
2019-02-05T12:28:16.035Z,102606.56
2019-02-05T12:30:45.685Z,102604.42
2019-02-05T12:33:14.565Z,102606.56
2019-02-05T12:35:43.630Z,102606.03
2019-02-05T12:38:12.424Z,102606.31
2019-02-05T12:40:41.012Z,102605.72
2019-02-05T12:43:09.530Z,102613.30
2019-02-05T12:45:38.359Z,102617.33
2019-02-05T12:48:07.369Z,102607.25
2019-02-05T12:50:37.180Z,102618.69
2019-02-05T12:53:06.551Z,102609.78
2019-02-05T12:55:36.118Z,102608.92
2019-02-05T12:58:05.450Z,102607.00
2019-02-05T13:00:55.995Z,102614.34
2019-02-05T13:03:14.447Z,102613.16
2019-02-05T13:05:44.373Z,102613.98
2019-02-05T13:08:13.575Z,102620.95
2019-02-05T13:10:45.348Z,102617.76
2019-02-05T13:13:14.636Z,102626.45
2019-02-05T13:15:43.156Z,102628.59
2019-02-05T13:18:11.921Z,102626.45
2019-02-05T13:20:40.716Z,102633.27
2019-02-05T13:23:09.929Z,102629.98
2019-02-05T13:25:39.146Z,102631.44
2019-02-05T13:28:11.232Z,102623.81
2019-02-05T13:30:40.544Z,102625.99
2019-02-05T13:33:12.959Z,102631.09
2019-02-05T13:35:41.981Z,102627.77
2019-02-05T13:38:10.454Z,102627.88
2019-02-05T13:40:39.227Z,102625.99
2019-02-05T13:43:08.339Z,102625.17
2019-02-05T13:45:39.637Z,102628.16
2019-02-05T13:48:08.694Z,102637.89
2019-02-05T13:50:37.691Z,102637.39
2019-02-05T13:53:06.816Z,102644.34
2019-02-05T13:55:39.661Z,102648.91
2019-02-05T13:58:09.400Z,102644.31
2019-02-05T14:00:52.958Z,102643.53
2019-02-05T14:03:22.005Z,102647.80
2019-02-05T14:05:50.536Z,102644.03
2019-02-05T14:08:19.203Z,102647.56
2019-02-05T14:10:48.946Z,102649.48
2019-02-05T14:13:18.690Z,102659.78
2019-02-05T14:15:51.173Z,102650.36
2019-02-05T14:18:22.683Z,102652.19
2019-02-05T14:20:50.390Z,102657.07
2019-02-05T14:23:19.163Z,102654.86
2019-02-05T14:25:47.829Z,102647.80
2019-02-05T14:28:16.629Z,102656.75
2019-02-05T14:30:54.500Z,102655.68
2019-02-05T14:33:25.518Z,102655.92
2019-02-05T14:35:54.333Z,102661.34
2019-02-05T14:38:23.074Z,102659.21
2019-02-05T14:40:51.683Z,102654.93
2019-02-05T14:43:20.280Z,102656.82
2019-02-05T14:45:49.252Z,102654.14
2019-02-05T14:48:17.998Z,102658.11
2019-02-05T14:50:47.287Z,102655.05
2019-02-05T14:53:17.423Z,102658.73
2019-02-05T14:55:46.382Z,102653.07
2019-02-05T14:58:16.981Z,102648.76
2019-02-05T15:00:45.824Z,102648.98
2019-02-05T15:03:15.162Z,102650.27
2019-02-05T15:05:45.285Z,102653.26
2019-02-05T15:08:15.785Z,102649.23
2019-02-05T15:10:44.617Z,102654.90
2019-02-05T15:13:15.867Z,102655.19
2019-02-05T15:15:43.986Z,102660.34
2019-02-05T15:18:21.683Z,102654.64
2019-02-05T15:20:50.941Z,102661.98
2019-02-05T15:23:20.201Z,102654.73
2019-02-05T15:25:48.683Z,102659.03
2019-02-05T15:28:17.202Z,102655.56
2019-02-05T15:30:46.267Z,102654.73
2019-02-05T15:33:52.389Z,102655.89
2019-02-05T15:36:26.790Z,102654.48
2019-02-05T15:38:55.550Z,102655.02
2019-02-05T15:41:24.245Z,102656.66
2019-02-05T15:43:52.936Z,102652.88
2019-02-05T15:46:21.915Z,102656.45
2019-02-05T15:48:50.686Z,102659.39
2019-02-05T15:51:19.304Z,102654.28
2019-02-05T15:53:48.185Z,102659.64
2019-02-05T15:56:16.852Z,102657.55
2019-02-05T15:58:45.401Z,102656.72
2019-02-05T16:01:15.428Z,102660.51
2019-02-05T16:03:44.504Z,102655.62
2019-02-05T16:06:13.143Z,102658.05
2019-02-05T16:08:41.870Z,102661.07
2019-02-05T16:11:10.633Z,102662.96
2019-02-05T16:13:39.277Z,102660.29
2019-02-05T16:16:07.812Z,102662.40
2019-02-05T16:18:36.583Z,102664.33
2019-02-05T16:21:05.179Z,102661.89
2019-02-05T16:23:34.752Z,102665.69
2019-02-05T16:26:04.896Z,102661.34
2019-02-05T16:28:33.498Z,102669.73
2019-02-05T16:31:02.414Z,102662.41
2019-02-05T16:33:31.415Z,102655.70
2019-02-05T16:36:00.559Z,102663.83
2019-02-05T16:38:29.329Z,102667.60
2019-02-05T16:40:58.009Z,102668.13
2019-02-05T16:43:28.113Z,102667.60
2019-02-05T16:45:56.774Z,102664.10
2019-02-05T16:48:25.479Z,102667.87
2019-02-05T16:50:54.351Z,102670.61
2019-02-05T16:53:23.075Z,102673.02
2019-02-05T16:55:51.601Z,102678.44
2019-02-05T16:58:20.185Z,102677.63
2019-02-05T17:00:48.907Z,102677.90
2019-02-05T17:03:17.655Z,102684.09
2019-02-05T17:05:47.071Z,102684.66
2019-02-05T17:08:15.665Z,102683.59
2019-02-05T17:10:44.261Z,102682.49
2019-02-05T17:13:12.885Z,102688.98
2019-02-05T17:15:41.500Z,102678.70
2019-02-05T17:18:10.068Z,102686.83
2019-02-05T17:20:38.964Z,102683.86
2019-02-05T17:23:07.842Z,102675.47
2019-02-05T17:25:36.487Z,102684.40
2019-02-05T17:28:06.286Z,102679.80
2019-02-05T17:30:37.197Z,102680.59
2019-02-05T17:33:06.171Z,102686.81
2019-02-05T17:35:35.619Z,102686.83
2019-02-05T17:38:07.620Z,102692.80
2019-02-05T17:40:37.185Z,102690.34
2019-02-05T17:43:06.614Z,102694.95
2019-02-05T17:45:38.359Z,102697.36
2019-02-05T17:48:11.354Z,102700.61
2019-02-05T17:50:40.529Z,102699.55
2019-02-05T17:53:09.035Z,102694.64
2019-02-05T17:55:37.636Z,102695.20
2019-02-05T17:58:06.498Z,102689.80
2019-02-05T18:00:54.118Z,102699.29
2019-02-05T18:03:23.105Z,102699.27
2019-02-05T18:05:51.688Z,102706.59
2019-02-05T18:08:20.618Z,102701.47
2019-02-05T18:10:49.247Z,102706.58
2019-02-05T18:13:17.780Z,102701.70
2019-02-05T18:15:46.391Z,102704.13
2019-02-05T18:18:15.260Z,102701.45
2019-02-05T18:20:44.295Z,102704.15
2019-02-05T18:23:12.983Z,102704.97
2019-02-05T18:25:41.743Z,102709.84
2019-02-05T18:28:10.291Z,102702.53
2019-02-05T18:30:39.019Z,102701.20
2019-02-05T18:33:07.868Z,102704.69
2019-02-05T18:35:36.637Z,102700.10
2019-02-05T18:38:07.848Z,102701.98
2019-02-05T18:40:36.533Z,102698.20
2019-02-05T18:43:05.435Z,102698.50
2019-02-05T18:45:34.187Z,102695.78
2019-02-05T18:48:02.923Z,102698.20
2019-02-05T18:50:31.619Z,102703.08
2019-02-05T18:53:00.865Z,102692.55
2019-02-05T18:55:30.587Z,102690.92
2019-02-05T18:58:08.692Z,102693.08
2019-02-05T19:00:33.406Z,102692.81
2019-02-05T19:03:01.922Z,102697.69
2019-02-05T19:05:30.799Z,102695.52
2019-02-05T19:07:59.541Z,102696.33
2019-02-05T19:10:28.489Z,102691.73
2019-02-05T19:12:57.778Z,102694.44
2019-02-05T19:15:32.123Z,102696.06
2019-02-05T19:18:01.059Z,102698.20
2019-02-05T19:20:31.074Z,102690.39
2019-02-05T19:23:00.410Z,102696.05
2019-02-05T19:25:42.498Z,102693.34
2019-02-05T19:28:16.928Z,102697.67
2019-02-05T19:30:46.223Z,102699.86
2019-02-05T19:33:26.434Z,102700.65
2019-02-05T19:35:45.332Z,102699.83
2019-02-05T19:38:13.911Z,102706.59
2019-02-05T19:40:45.078Z,102703.90
2019-02-05T19:43:14.077Z,102705.25
2019-02-05T19:45:55.603Z,102704.16
2019-02-05T19:48:30.233Z,102703.90
2019-02-05T19:50:59.142Z,102705.25
2019-02-05T19:53:27.746Z,102710.66
2019-02-05T19:55:57.189Z,102700.64
2019-02-05T19:58:25.691Z,102708.77
2019-02-05T20:00:54.723Z,102716.88
2019-02-05T20:03:23.286Z,102724.17
2019-02-05T20:05:51.860Z,102719.56
2019-02-05T20:08:20.489Z,102722.00
2019-02-05T20:10:49.145Z,102729.84
2019-02-05T20:13:17.818Z,102727.38
2019-02-05T20:15:46.518Z,102723.61
2019-02-05T20:18:15.517Z,102723.64
2019-02-05T20:20:44.537Z,102719.30
2019-02-05T20:23:13.137Z,102728.50
2019-02-05T20:25:42.032Z,102724.18
2019-02-05T20:28:10.614Z,102729.33
2019-02-05T20:30:39.423Z,102729.05
2019-02-05T20:33:08.319Z,102729.59
2019-02-05T20:35:36.915Z,102732.55
2019-02-05T20:38:05.415Z,102728.50
2019-02-05T20:40:34.999Z,102722.02
2019-02-05T20:43:03.675Z,102718.77
2019-02-05T20:45:32.268Z,102718.52
2019-02-05T20:48:00.697Z,102717.68
2019-02-05T20:50:29.346Z,102723.35
2019-02-05T20:52:58.223Z,102725.53
2019-02-05T20:55:26.812Z,102727.41
2019-02-05T20:57:55.499Z,102724.43
2019-02-05T21:00:24.071Z,102741.47
2019-02-05T21:02:52.726Z,102730.95
2019-02-05T21:05:21.530Z,102727.95
2019-02-05T21:07:50.545Z,102735.27
2019-02-05T21:10:21.750Z,102735.00
2019-02-05T21:12:50.630Z,102729.56
2019-02-05T21:15:20.958Z,102731.20
2019-02-05T21:17:49.733Z,102738.20
2019-02-05T21:20:28.922Z,102729.02
2019-02-05T21:22:50.319Z,102739.81
2019-02-05T21:25:19.901Z,102734.97
2019-02-05T21:27:48.638Z,102742.26
2019-02-05T21:30:19.266Z,102743.88
2019-02-05T21:32:48.097Z,102744.16
2019-02-05T21:35:16.793Z,102736.61
2019-02-05T21:37:45.563Z,102732.81
2019-02-05T21:40:20.020Z,102738.45
2019-02-05T21:42:48.562Z,102732.81
2019-02-05T21:45:20.038Z,102742.55
2019-02-05T21:47:48.768Z,102732.27
2019-02-05T21:50:19.341Z,102736.31
2019-02-05T21:52:48.927Z,102745.22
2019-02-05T21:55:18.303Z,102736.28
2019-02-05T21:57:47.729Z,102735.50
2019-02-05T22:00:25.783Z,102734.15
2019-02-05T22:02:54.711Z,102725.22
2019-02-05T22:05:23.927Z,102724.40
2019-02-05T22:07:52.788Z,102726.31
2019-02-05T22:10:22.053Z,102729.80
2019-02-05T22:12:50.736Z,102739.01
2019-02-05T22:15:20.219Z,102736.32
2019-02-05T22:17:48.925Z,102733.60
2019-02-05T22:20:23.510Z,102727.91
2019-02-05T22:22:52.038Z,102727.65
2019-02-05T22:25:24.100Z,102724.70
2019-02-05T22:27:52.633Z,102720.09
2019-02-05T22:30:28.356Z,102713.08
2019-02-05T22:32:57.158Z,102712.49
2019-02-05T22:35:25.945Z,102709.55
2019-02-05T22:37:55.051Z,102718.95
2019-02-05T22:40:25.457Z,102720.89
2019-02-05T22:42:54.883Z,102722.77
2019-02-05T22:45:26.392Z,102721.14
2019-02-05T22:47:55.269Z,102718.72
2019-02-05T22:50:26.227Z,102726.57
2019-02-05T22:52:57.554Z,102721.41
2019-02-05T22:55:26.551Z,102716.02
2019-02-05T22:57:55.027Z,102718.20
2019-02-05T23:01:06.888Z,102711.41
2019-02-05T23:04:06.985Z,102703.59
2019-02-05T23:07:05.277Z,102707.91
2019-02-05T23:10:09.392Z,102690.34
2019-02-05T23:13:07.705Z,102705.48
2019-02-05T23:15:40.739Z,102703.58
2019-02-05T23:18:09.841Z,102704.64
2019-02-05T23:20:38.473Z,102702.50
2019-02-05T23:23:07.156Z,102700.33
2019-02-05T23:25:35.724Z,102702.25
2019-02-05T23:28:05.030Z,102701.70
2019-02-05T23:30:34.583Z,102702.22
2019-02-05T23:33:03.307Z,102702.47
2019-02-05T23:35:32.809Z,102705.20
2019-02-05T23:38:02.506Z,102701.39
2019-02-05T23:40:31.102Z,102698.14
2019-02-05T23:42:59.707Z,102699.50
2019-02-05T23:45:28.578Z,102701.93
2019-02-05T23:47:57.179Z,102707.31
2019-02-05T23:50:26.032Z,102707.06
2019-02-05T23:52:54.556Z,102698.97
2019-02-05T23:55:23.254Z,102694.13
2019-02-05T23:57:51.682Z,102698.70
